createdAt,value
2018-09-23T00:02:06.562Z,5.15
2018-09-23T00:04:42.149Z,4.83
2018-09-23T00:07:17.645Z,4.15
2018-09-23T00:09:52.898Z,5.12
2018-09-23T00:12:28.329Z,3.92
2018-09-23T00:15:03.918Z,5.62
2018-09-23T00:17:39.415Z,5.22
2018-09-23T00:20:14.979Z,5.60
2018-09-23T00:22:50.659Z,6.45
2018-09-23T00:25:25.936Z,7.67
2018-09-23T00:28:01.413Z,8.50
2018-09-23T00:30:36.958Z,5.45
2018-09-23T00:33:12.520Z,6.42
2018-09-23T00:35:48.054Z,6.53
2018-09-23T00:38:23.585Z,6.53
2018-09-23T00:40:59.238Z,7.40
2018-09-23T00:43:34.906Z,9.50
2018-09-23T00:46:10.346Z,10.03
2018-09-23T00:48:45.679Z,11.30
2018-09-23T00:51:21.335Z,8.98
2018-09-23T00:53:56.846Z,9.35
2018-09-23T00:56:32.247Z,10.43
2018-09-23T00:59:07.677Z,9.48
2018-09-23T01:01:43.218Z,8.30
2018-09-23T01:04:18.736Z,9.80
2018-09-23T01:06:54.131Z,9.55
2018-09-23T01:09:29.436Z,11.55
2018-09-23T01:12:04.877Z,11.30
2018-09-23T01:14:40.316Z,7.60
2018-09-23T01:17:15.699Z,10.25
2018-09-23T01:19:51.139Z,10.00
2018-09-23T01:22:26.459Z,10.05
2018-09-23T01:25:01.911Z,11.45
2018-09-23T01:27:37.276Z,11.93
2018-09-23T01:30:12.900Z,10.15
2018-09-23T01:32:48.337Z,11.18
2018-09-23T01:35:23.700Z,10.28
2018-09-23T01:37:59.109Z,10.80
2018-09-23T01:40:34.767Z,12.15
2018-09-23T01:43:10.202Z,12.33
2018-09-23T01:45:45.648Z,13.00
2018-09-23T01:48:21.087Z,12.65
2018-09-23T01:50:56.315Z,11.45
2018-09-23T01:53:31.648Z,12.82
2018-09-23T01:56:07.047Z,12.03
2018-09-23T01:58:42.555Z,13.90
2018-09-23T02:01:18.008Z,14.00
2018-09-23T02:03:53.459Z,13.10
2018-09-23T02:06:28.887Z,14.20
2018-09-23T02:09:04.925Z,15.30
2018-09-23T02:11:40.495Z,15.18
2018-09-23T02:14:15.726Z,17.05
2018-09-23T02:16:51.175Z,14.20
2018-09-23T02:19:26.538Z,14.38
2018-09-23T02:22:01.957Z,18.05
2018-09-23T02:24:37.256Z,16.12
2018-09-23T02:27:12.634Z,13.65
2018-09-23T02:29:48.246Z,14.05
2018-09-23T02:32:23.664Z,15.38
2018-09-23T02:34:58.836Z,17.25
2018-09-23T02:37:34.204Z,18.10
2018-09-23T02:40:09.935Z,15.85
2018-09-23T02:42:45.619Z,17.50
2018-09-23T02:45:21.045Z,16.30
2018-09-23T02:47:56.275Z,16.45
2018-09-23T02:50:31.737Z,18.57
2018-09-23T02:53:07.164Z,17.45
2018-09-23T02:55:42.517Z,17.55
2018-09-23T02:58:18.068Z,19.60
2018-09-23T03:00:53.589Z,20.90
2018-09-23T03:03:28.977Z,17.70
2018-09-23T03:06:04.758Z,18.20
2018-09-23T03:08:40.474Z,19.00
2018-09-23T03:11:15.794Z,20.40
2018-09-23T03:13:51.237Z,19.73
2018-09-23T03:16:26.674Z,18.42
2018-09-23T03:19:02.007Z,17.82
2018-09-23T03:21:37.478Z,19.45
2018-09-23T03:24:12.714Z,19.45
2018-09-23T03:26:48.067Z,19.50
2018-09-23T03:29:23.372Z,23.35
2018-09-23T03:31:58.833Z,19.62
2018-09-23T03:34:34.049Z,18.37
2018-09-23T03:37:09.597Z,20.50
2018-09-23T03:39:45.171Z,18.23
2018-09-23T03:42:20.694Z,17.95
2018-09-23T03:44:56.338Z,19.67
2018-09-23T03:47:31.779Z,24.90
2018-09-23T03:50:07.337Z,22.20
2018-09-23T03:52:42.795Z,19.57
2018-09-23T03:55:18.298Z,21.40
2018-09-23T03:57:54.067Z,24.30
2018-09-23T04:00:29.405Z,24.32
2018-09-23T04:03:04.639Z,23.32
2018-09-23T04:05:39.997Z,23.80
2018-09-23T04:08:15.368Z,22.48
2018-09-23T04:10:50.784Z,24.02
2018-09-23T04:13:25.995Z,26.40
2018-09-23T04:16:01.245Z,25.97
2018-09-23T04:18:36.756Z,25.00
2018-09-23T04:21:12.161Z,25.02
2018-09-23T04:23:47.488Z,23.35
2018-09-23T04:26:22.905Z,22.65
2018-09-23T04:28:58.248Z,29.27
2018-09-23T04:31:33.604Z,21.75
2018-09-23T04:34:09.047Z,24.00
2018-09-23T04:36:44.677Z,26.15
2018-09-23T04:39:20.116Z,24.57
2018-09-23T04:41:55.514Z,23.12
2018-09-23T04:44:31.038Z,26.35
2018-09-23T04:47:06.488Z,29.82
2018-09-23T04:49:41.934Z,24.23
2018-09-23T04:52:17.355Z,30.40
2018-09-23T04:54:52.698Z,26.27
2018-09-23T04:57:28.068Z,21.80
2018-09-23T05:00:03.511Z,25.32
2018-09-23T05:02:39.034Z,26.57
2018-09-23T05:05:14.345Z,25.55
2018-09-23T05:07:49.714Z,28.85
2018-09-23T05:10:25.177Z,30.80
2018-09-23T05:13:00.942Z,29.67
2018-09-23T05:15:36.535Z,28.52
2018-09-23T05:18:12.017Z,23.35
2018-09-23T05:20:47.456Z,28.38
2018-09-23T05:23:22.714Z,28.80
2018-09-23T05:25:57.894Z,28.52
2018-09-23T05:28:33.154Z,27.02
2018-09-23T05:31:08.608Z,26.30
2018-09-23T05:33:43.939Z,30.30
2018-09-23T05:36:19.520Z,26.82
2018-09-23T05:38:54.835Z,30.97
2018-09-23T05:41:30.075Z,25.08
2018-09-23T05:44:05.585Z,28.60
2018-09-23T05:46:40.964Z,27.67
2018-09-23T05:49:16.196Z,30.17
2018-09-23T05:51:51.564Z,29.55
2018-09-23T05:54:26.975Z,29.92
2018-09-23T05:57:02.441Z,26.05
2018-09-23T05:59:37.964Z,26.35
2018-09-23T06:02:13.417Z,29.50
2018-09-23T06:04:49.040Z,32.20
2018-09-23T06:07:24.615Z,26.10
2018-09-23T06:09:59.938Z,26.80
2018-09-23T06:12:35.404Z,28.55
2018-09-23T06:15:11.015Z,24.87
2018-09-23T06:17:46.507Z,25.10
2018-09-23T06:20:22.027Z,26.00
2018-09-23T06:22:57.375Z,31.97
2018-09-23T06:25:32.758Z,36.55
2018-09-23T06:28:08.298Z,25.48
2018-09-23T06:30:43.599Z,24.45
2018-09-23T06:33:19.075Z,24.60
2018-09-23T06:35:54.568Z,26.52
2018-09-23T06:38:29.948Z,23.45
2018-09-23T06:41:05.355Z,23.50
2018-09-23T06:43:40.706Z,24.63
2018-09-23T06:46:16.044Z,23.65
2018-09-23T06:48:51.626Z,21.93
2018-09-23T06:51:27.258Z,23.30
2018-09-23T06:54:02.588Z,24.23
2018-09-23T06:56:37.925Z,19.52
2018-09-23T06:59:13.509Z,17.98
2018-09-23T07:01:49.127Z,21.02
2018-09-23T07:04:24.573Z,18.77
2018-09-23T07:06:59.950Z,17.95
2018-09-23T07:09:35.563Z,17.40
2018-09-23T07:12:11.005Z,18.23
2018-09-23T07:14:46.688Z,17.80
2018-09-23T07:17:22.216Z,15.65
2018-09-23T07:19:57.668Z,17.27
2018-09-23T07:22:33.298Z,14.73
2018-09-23T07:25:08.867Z,14.28
2018-09-23T07:27:44.367Z,11.85
2018-09-23T07:30:19.819Z,12.85
2018-09-23T07:32:55.307Z,14.95
2018-09-23T07:35:30.758Z,12.58
2018-09-23T07:38:06.288Z,13.98
2018-09-23T07:40:41.607Z,12.45
2018-09-23T07:43:17.168Z,13.45
2018-09-23T07:45:52.681Z,13.55
2018-09-23T07:48:28.148Z,13.15
2018-09-23T07:51:03.884Z,14.40
2018-09-23T07:53:39.516Z,12.37
2018-09-23T07:56:14.979Z,11.73
2018-09-23T07:58:50.438Z,11.78
2018-09-23T08:01:25.767Z,12.00
2018-09-23T08:04:01.428Z,11.75
2018-09-23T08:06:36.769Z,11.10
2018-09-23T08:09:12.520Z,12.35
2018-09-23T08:11:48.167Z,12.33
2018-09-23T08:14:23.915Z,12.07
2018-09-23T08:16:59.257Z,11.25
2018-09-23T08:19:34.724Z,11.10
2018-09-23T08:22:09.947Z,10.98
2018-09-23T08:24:45.264Z,10.95
2018-09-23T08:27:20.647Z,11.22
2018-09-23T08:29:56.277Z,11.43
2018-09-23T08:32:31.586Z,12.35
2018-09-23T08:35:07.126Z,11.57
2018-09-23T08:37:42.905Z,11.63
2018-09-23T08:40:18.666Z,12.03
2018-09-23T08:42:54.160Z,12.23
2018-09-23T08:45:29.589Z,10.75
2018-09-23T08:48:05.237Z,10.95
2018-09-23T08:50:40.845Z,11.57
2018-09-23T08:53:16.288Z,11.15
2018-09-23T08:55:51.595Z,10.32
2018-09-23T08:58:26.966Z,10.75
2018-09-23T09:01:02.455Z,11.40
2018-09-23T09:03:37.809Z,10.75
2018-09-23T09:06:13.404Z,10.98
2018-09-23T09:08:49.025Z,9.45
2018-09-23T09:11:24.559Z,9.75
2018-09-23T09:14:00.135Z,9.18
2018-09-23T09:16:35.365Z,9.85
2018-09-23T09:19:10.698Z,8.78
2018-09-23T09:21:46.142Z,8.00
2018-09-23T09:24:21.598Z,8.40
2018-09-23T09:26:56.848Z,8.90
2018-09-23T09:29:32.182Z,8.50
2018-09-23T09:32:07.507Z,7.20
2018-09-23T09:34:42.745Z,6.85
2018-09-23T09:37:18.095Z,7.67
2018-09-23T09:39:53.424Z,7.97
2018-09-23T09:42:29.089Z,6.40
2018-09-23T09:45:04.743Z,7.17
2018-09-23T09:47:40.065Z,6.35
2018-09-23T09:50:15.595Z,5.97
2018-09-23T09:52:51.059Z,5.62
2018-09-23T09:55:26.558Z,5.30
2018-09-23T09:58:01.964Z,5.78
2018-09-23T10:00:37.186Z,6.20
2018-09-23T10:03:12.516Z,5.25
2018-09-23T10:05:47.786Z,3.25
2018-09-23T10:08:23.328Z,2.92
2018-09-23T10:10:58.725Z,3.65
2018-09-23T10:13:34.008Z,4.62
2018-09-23T10:16:09.196Z,3.77
2018-09-23T10:18:44.697Z,4.53
2018-09-23T10:21:20.419Z,4.50
2018-09-23T10:23:56.336Z,3.27
2018-09-23T10:26:31.837Z,3.80
2018-09-23T10:29:07.411Z,4.00
2018-09-23T10:31:42.612Z,3.55
2018-09-23T10:34:18.068Z,4.42
2018-09-23T10:36:53.574Z,5.22
2018-09-23T10:39:29.280Z,3.83
2018-09-23T10:42:04.735Z,3.10
2018-09-23T10:44:40.148Z,2.83
2018-09-23T10:47:15.598Z,4.80
2018-09-23T10:49:51.058Z,2.85
2018-09-23T10:52:26.268Z,2.62
2018-09-23T10:55:01.705Z,2.12
2018-09-23T10:57:37.105Z,2.75
2018-09-23T11:00:12.517Z,2.25
2018-09-23T11:02:47.707Z,2.60
2018-09-23T11:05:22.972Z,2.30
2018-09-23T11:07:58.265Z,2.92
2018-09-23T11:10:33.645Z,2.62
2018-09-23T11:13:08.965Z,2.60
2018-09-23T11:15:44.375Z,2.17
2018-09-23T11:18:19.656Z,2.22
2018-09-23T11:20:55.015Z,1.35
2018-09-23T11:23:30.474Z,2.02
2018-09-23T11:26:05.805Z,2.30
2018-09-23T11:28:41.114Z,2.47
2018-09-23T11:31:16.566Z,3.27
2018-09-23T11:33:52.017Z,3.50
2018-09-23T11:36:27.588Z,3.65
2018-09-23T11:39:03.244Z,4.05
2018-09-23T11:41:38.759Z,4.50
2018-09-23T11:44:14.335Z,4.58
2018-09-23T11:46:49.859Z,4.07
2018-09-23T11:49:25.314Z,4.30
2018-09-23T11:52:00.767Z,3.13
2018-09-23T11:54:36.177Z,3.67
2018-09-23T11:57:11.728Z,3.35
2018-09-23T11:59:47.297Z,3.90
2018-09-23T12:02:22.820Z,4.40
2018-09-23T12:04:58.267Z,5.60
2018-09-23T12:07:33.718Z,5.60
2018-09-23T12:10:09.215Z,5.03
2018-09-23T12:12:44.616Z,6.03
2018-09-23T12:15:19.847Z,5.33
2018-09-23T12:17:55.175Z,4.85
2018-09-23T12:20:30.617Z,5.28
2018-09-23T12:23:06.165Z,5.97
2018-09-23T12:25:41.726Z,6.80
2018-09-23T12:28:17.056Z,6.15
2018-09-23T12:30:52.734Z,5.92
2018-09-23T12:33:28.378Z,6.00
2018-09-23T12:36:04.377Z,6.10
2018-09-23T12:38:39.855Z,6.30
2018-09-23T12:41:15.494Z,2.62
2018-09-23T12:43:50.814Z,1.20
2018-09-23T12:46:26.084Z,1.40
2018-09-23T12:49:01.778Z,1.00
2018-09-23T12:51:37.187Z,1.65
2018-09-23T12:54:12.798Z,1.20
2018-09-23T12:56:48.034Z,1.07
2018-09-23T12:59:23.469Z,1.87
2018-09-23T13:01:58.840Z,1.35
2018-09-23T13:04:34.518Z,1.22
2018-09-23T13:07:10.135Z,1.45
2018-09-23T13:09:45.585Z,1.40
2018-09-23T13:12:21.015Z,1.30
2018-09-23T13:14:56.358Z,1.72
2018-09-23T13:17:31.920Z,2.77
2018-09-23T13:20:07.457Z,1.00
2018-09-23T13:22:42.941Z,1.35
2018-09-23T13:25:18.344Z,1.70
2018-09-23T13:27:53.898Z,1.60
2018-09-23T13:30:29.531Z,1.55
2018-09-23T13:33:04.882Z,2.00
2018-09-23T13:35:40.536Z,2.00
2018-09-23T13:38:16.068Z,1.42
2018-09-23T13:40:51.660Z,1.30
2018-09-23T13:43:27.297Z,1.50
2018-09-23T13:46:03.034Z,1.40
2018-09-23T13:48:38.678Z,1.50
2018-09-23T13:51:14.235Z,1.40
2018-09-23T13:53:49.787Z,1.17
2018-09-23T13:56:25.424Z,1.10
2018-09-23T13:59:00.761Z,1.42
2018-09-23T14:01:36.207Z,1.47
2018-09-23T14:04:11.737Z,1.35
2018-09-23T14:06:47.414Z,1.72
2018-09-23T14:09:22.739Z,1.10
2018-09-23T14:11:58.325Z,1.42
2018-09-23T14:14:33.857Z,1.72
2018-09-23T14:17:09.507Z,1.50
2018-09-23T14:19:45.106Z,1.35
2018-09-23T14:22:20.573Z,1.30
2018-09-23T14:24:55.899Z,1.75
2018-09-23T14:27:31.234Z,1.70
2018-09-23T14:30:06.779Z,1.25
2018-09-23T14:32:42.479Z,1.20
2018-09-23T14:35:18.166Z,1.67
2018-09-23T14:37:54.157Z,2.90
2018-09-23T14:40:29.805Z,1.55
2018-09-23T14:43:05.226Z,0.95
2018-09-23T14:45:40.905Z,1.17
2018-09-23T14:48:16.294Z,1.40
2018-09-23T14:50:51.788Z,1.35
2018-09-23T14:53:27.346Z,1.60
2018-09-23T14:56:02.755Z,1.07
2018-09-23T14:58:38.338Z,1.35
2018-09-23T15:01:13.885Z,1.32
2018-09-23T15:03:49.387Z,1.47
2018-09-23T15:06:25.023Z,1.60
2018-09-23T15:09:00.485Z,1.42
2018-09-23T15:11:36.255Z,1.40
2018-09-23T15:14:11.825Z,1.50
2018-09-23T15:16:47.460Z,1.60
2018-09-23T15:19:22.904Z,1.32
2018-09-23T15:21:58.374Z,1.30
2018-09-23T15:24:33.677Z,1.85
2018-09-23T15:27:09.204Z,1.87
2018-09-23T15:29:44.919Z,2.60
2018-09-23T15:32:20.451Z,1.55
2018-09-23T15:34:55.759Z,1.70
2018-09-23T15:37:31.207Z,2.35
2018-09-23T15:40:06.717Z,1.85
2018-09-23T15:42:42.183Z,1.70
2018-09-23T15:45:17.419Z,2.27
2018-09-23T15:47:52.888Z,1.67
2018-09-23T15:50:28.416Z,2.17
2018-09-23T15:53:04.034Z,1.90
2018-09-23T15:55:39.698Z,2.75
2018-09-23T15:58:15.279Z,4.90
2018-09-23T16:00:50.718Z,2.30
2018-09-23T16:03:26.177Z,1.95
2018-09-23T16:06:01.475Z,2.15
2018-09-23T16:08:36.747Z,2.22
2018-09-23T16:11:12.259Z,2.35
2018-09-23T16:13:47.614Z,2.12
2018-09-23T16:16:23.154Z,2.85
2018-09-23T16:18:58.678Z,2.17
2018-09-23T16:21:33.827Z,2.22
2018-09-23T16:24:09.283Z,2.65
2018-09-23T16:26:44.715Z,2.67
2018-09-23T16:29:20.233Z,2.40
2018-09-23T16:31:55.643Z,2.17
2018-09-23T16:34:31.134Z,2.70
2018-09-23T16:37:06.616Z,2.37
2018-09-23T16:39:42.156Z,2.70
2018-09-23T16:42:17.608Z,2.85
2018-09-23T16:44:52.947Z,2.67
2018-09-23T16:47:28.491Z,2.45
2018-09-23T16:50:04.024Z,3.20
2018-09-23T16:52:40.817Z,3.00
2018-09-23T16:55:16.247Z,3.27
2018-09-23T16:57:51.693Z,2.62
2018-09-23T17:00:27.414Z,2.90
2018-09-23T17:03:02.811Z,3.65
2018-09-23T17:05:38.426Z,3.70
2018-09-23T17:08:13.756Z,3.05
2018-09-23T17:10:49.347Z,3.10
2018-09-23T17:13:24.777Z,3.35
2018-09-23T17:16:00.416Z,3.50
2018-09-23T17:18:35.957Z,3.33
2018-09-23T17:21:11.374Z,3.42
2018-09-23T17:23:46.738Z,2.90
2018-09-23T17:26:22.396Z,2.98
2018-09-23T17:28:57.948Z,2.58
2018-09-23T17:31:33.569Z,2.47
2018-09-23T17:34:09.272Z,2.47
2018-09-23T17:36:44.678Z,2.50
2018-09-23T17:39:19.859Z,2.37
2018-09-23T17:41:55.228Z,2.08
2018-09-23T17:44:30.683Z,1.70
2018-09-23T17:47:06.536Z,2.00
2018-09-23T17:49:42.088Z,2.70
2018-09-23T17:52:17.518Z,2.17
2018-09-23T17:54:52.890Z,2.58
2018-09-23T17:57:28.208Z,2.17
2018-09-23T18:00:03.718Z,2.72
2018-09-23T18:02:39.099Z,2.25
2018-09-23T18:05:14.468Z,1.65
2018-09-23T18:07:50.055Z,2.50
2018-09-23T18:10:25.649Z,2.17
2018-09-23T18:13:01.175Z,2.47
2018-09-23T18:15:36.625Z,1.90
2018-09-23T18:18:12.144Z,1.80
2018-09-23T18:20:47.614Z,2.15
2018-09-23T18:23:22.744Z,2.25
2018-09-23T18:25:58.416Z,2.17
2018-09-23T18:28:33.935Z,2.30
2018-09-23T18:31:09.804Z,2.50
2018-09-23T18:33:45.251Z,2.60
2018-09-23T18:36:20.684Z,2.90
2018-09-23T18:38:56.025Z,2.55
2018-09-23T18:41:31.467Z,3.08
2018-09-23T18:44:07.127Z,2.75
2018-09-23T18:46:42.450Z,2.45
2018-09-23T18:49:17.905Z,3.00
2018-09-23T18:51:53.120Z,2.00
2018-09-23T18:54:33.899Z,1.80
2018-09-23T18:57:09.267Z,1.75
2018-09-23T18:59:44.617Z,1.85
2018-09-23T19:02:20.042Z,1.60
2018-09-23T19:04:55.596Z,2.02
2018-09-23T19:07:30.907Z,1.30
2018-09-23T19:10:06.307Z,1.70
2018-09-23T19:12:43.948Z,1.65
2018-09-23T19:15:19.633Z,2.17
2018-09-23T19:17:55.125Z,1.50
2018-09-23T19:20:30.674Z,1.77
2018-09-23T19:23:12.169Z,1.70
2018-09-23T19:25:47.348Z,1.60
2018-09-23T19:28:22.835Z,1.75
2018-09-23T19:30:58.201Z,1.30
2018-09-23T19:33:33.547Z,1.25
2018-09-23T19:36:09.047Z,1.32
2018-09-23T19:38:44.395Z,1.60
2018-09-23T19:41:19.697Z,1.90
2018-09-23T19:43:54.993Z,1.30
2018-09-23T19:46:30.467Z,1.50
2018-09-23T19:49:06.128Z,2.05
2018-09-23T19:51:41.546Z,1.85
2018-09-23T19:54:16.919Z,1.90
2018-09-23T19:56:52.105Z,1.67
2018-09-23T19:59:27.668Z,1.55
2018-09-23T20:02:03.224Z,1.25
2018-09-23T20:04:38.787Z,1.65
2018-09-23T20:07:14.127Z,1.30
2018-09-23T20:09:49.578Z,1.60
2018-09-23T20:12:24.895Z,1.30
2018-09-23T20:15:00.464Z,1.10
2018-09-23T20:17:36.018Z,1.10
2018-09-23T20:20:11.449Z,1.60
2018-09-23T20:22:46.984Z,1.10
2018-09-23T20:25:22.485Z,1.50
2018-09-23T20:27:57.877Z,2.02
2018-09-23T20:30:33.438Z,2.00
2018-09-23T20:33:08.868Z,1.00
2018-09-23T20:35:44.366Z,1.35
2018-09-23T20:38:19.745Z,1.75
2018-09-23T20:40:55.078Z,1.60
2018-09-23T20:43:30.611Z,1.42
2018-09-23T20:46:05.901Z,1.92
2018-09-23T20:48:41.185Z,1.80
2018-09-23T20:51:16.645Z,1.15
2018-09-23T20:53:52.134Z,1.60
2018-09-23T20:56:27.437Z,1.40
2018-09-23T20:59:02.787Z,1.30
2018-09-23T21:01:38.355Z,2.12
2018-09-23T21:04:13.644Z,1.37
2018-09-23T21:06:49.098Z,1.27
2018-09-23T21:09:24.667Z,1.77
2018-09-23T21:12:00.161Z,1.10
2018-09-23T21:14:35.658Z,1.50
2018-09-23T21:17:11.107Z,1.00
2018-09-23T21:19:46.594Z,1.37
2018-09-23T21:22:21.945Z,1.00
2018-09-23T21:24:57.587Z,1.05
2018-09-23T21:27:33.186Z,1.60
2018-09-23T21:30:08.796Z,1.40
2018-09-23T21:32:44.287Z,1.57
2018-09-23T21:35:19.697Z,1.25
2018-09-23T21:37:55.167Z,1.42
2018-09-23T21:40:30.665Z,1.60
2018-09-23T21:43:06.434Z,1.30
2018-09-23T21:45:41.994Z,1.80
2018-09-23T21:48:17.645Z,1.35
2018-09-23T21:50:53.177Z,1.45
2018-09-23T21:53:28.527Z,1.90
2018-09-23T21:56:04.044Z,1.20
2018-09-23T21:58:39.526Z,1.25
2018-09-23T22:01:14.935Z,1.45
2018-09-23T22:03:50.295Z,1.30
2018-09-23T22:06:25.835Z,1.50
2018-09-23T22:09:01.497Z,1.40
2018-09-23T22:11:37.047Z,1.85
2018-09-23T22:14:12.598Z,1.60
2018-09-23T22:16:48.059Z,1.87
2018-09-23T22:19:23.370Z,1.95
2018-09-23T22:21:58.698Z,1.65
2018-09-23T22:24:34.037Z,1.27
2018-09-23T22:27:09.589Z,1.57
2018-09-23T22:29:44.990Z,1.57
2018-09-23T22:32:20.445Z,1.40
2018-09-23T22:34:55.830Z,1.80
2018-09-23T22:37:31.298Z,1.98
2018-09-23T22:40:07.145Z,1.40
2018-09-23T22:42:42.658Z,1.65
2018-09-23T22:45:18.276Z,1.55
2018-09-23T22:47:53.645Z,1.60
2018-09-23T22:50:29.097Z,1.32
2018-09-23T22:53:04.697Z,1.55
2018-09-23T22:55:40.067Z,1.40
2018-09-23T22:58:15.537Z,1.57
2018-09-23T23:00:51.186Z,1.75
2018-09-23T23:03:26.815Z,1.45
2018-09-23T23:06:02.495Z,1.60
2018-09-23T23:08:37.585Z,1.65
2018-09-23T23:11:12.967Z,1.35
2018-09-23T23:13:48.448Z,2.40
2018-09-23T23:16:23.848Z,2.27
2018-09-23T23:18:59.307Z,1.30
2018-09-23T23:21:34.741Z,1.82
2018-09-23T23:24:09.965Z,2.47
2018-09-23T23:26:45.538Z,1.50
2018-09-23T23:29:21.191Z,2.12
2018-09-23T23:31:56.598Z,2.33
2018-09-23T23:34:32.148Z,1.87
2018-09-23T23:37:07.479Z,1.40
2018-09-23T23:39:43.098Z,1.87
2018-09-23T23:42:18.413Z,1.82
2018-09-23T23:44:53.633Z,1.30
2018-09-23T23:47:29.074Z,1.90
2018-09-23T23:50:04.622Z,2.45
2018-09-23T23:52:40.030Z,2.70
2018-09-23T23:55:15.718Z,1.20
2018-09-23T23:57:51.191Z,2.80
